HST,Max TemperatureF,Mean TemperatureF,Min TemperatureF,Max Dew PointF,MeanDew PointF,Min DewpointF,Max Humidity, Mean Humidity, Min Humidity, Max Sea Level PressureIn, Mean Sea Level PressureIn, Min Sea Level PressureIn, Max VisibilityMiles, Mean VisibilityMiles, Min VisibilityMiles, Max Wind SpeedMPH, Mean Wind SpeedMPH, Max Gust SpeedMPH,PrecipitationIn, CloudCover, Events, WindDirDegrees
2013-3-1,76,73,69,61,59,57,73,64,54,30.23,30.19,30.14,10,10,10,26,21,31,T,5,Rain,52
2013-3-2,77,72,67,63,58,55,81,66,50,30.24,30.19,30.14,10,10,7,29,19,35,0.01,5,Rain,60
2013-3-3,75,72,69,61,57,51,73,63,53,30.22,30.19,30.15,10,10,10,24,18,30,T,7,,60
2013-3-4,76,72,68,59,56,54,70,60,49,30.24,30.19,30.15,10,10,10,23,17,29,0.00,6,,58
2013-3-5,76,73,69,61,58,54,73,64,54,30.20,30.15,30.10,10,10,10,23,14,29,0.00,5,,57
2013-3-6,77,73,68,64,62,60,81,73,64,30.18,30.13,30.08,10,10,5,16,11,21,0.04,5,Rain,76
2013-3-7,78,70,62,64,61,59,93,77,60,30.14,30.07,30.01,10,10,10,13,7,16,0.00,2,,251
2013-3-8,79,69,59,64,61,58,97,79,60,30.03,29.95,29.87,10,10,10,23,10,33,T,3,,226
2013-3-9,76,72,67,66,63,60,93,79,64,29.92,29.89,29.84,10,10,3,25,13,37,0.11,5,Rain,216
2013-3-10,78,70,62,62,60,56,93,75,56,30.03,29.93,29.87,10,10,10,18,5,26,T,5,,281
2013-3-11,74,67,60,58,56,55,84,69,53,30.08,30.04,29.98,10,10,10,12,8,14,0.00,2,,326
2013-3-12,75,67,58,60,57,55,87,73,58,30.11,30.06,30.01,10,10,10,18,9,22,0.00,3,,341
2013-3-13,75,67,59,58,54,51,87,68,49,30.12,30.08,30.04,10,10,10,15,8,18,0.00,3,,337
2013-3-14,73,66,59,57,55,53,78,68,57,30.11,30.04,29.99,10,10,10,13,7,16,0.00,1,,259
2013-3-15,75,66,57,61,56,52,86,73,60,30.00,29.96,29.90,10,10,10,17,9,22,0.00,3,,338
2013-3-16,77,67,56,56,52,49,87,63,38,30.04,29.98,29.93,10,10,10,21,9,28,0.00,2,,321
2013-3-17,74,65,56,63,57,51,93,73,53,30.07,30.02,29.99,10,8,2,20,6,24,0.12,6,Rain,331
2013-3-18,74,66,57,57,54,53,87,70,53,30.06,30.02,29.96,10,10,10,15,8,25,0.00,3,,332
2013-3-19,76,68,59,62,58,54,84,72,60,30.03,29.98,29.94,10,10,10,15,7,18,0.00,4,,238
2013-3-20,78,70,61,67,63,57,90,76,62,30.08,30.02,29.96,10,10,9,16,8,21,0.01,2,Rain,223
2013-3-21,80,71,62,72,66,60,93,84,74,30.07,30.02,29.96,10,10,10,20,10,29,0.00,4,,208
2013-3-22,77,72,67,69,67,63,100,84,68,30.04,30.00,29.95,10,8,1,15,7,26,1.22,8,Rain,33
2013-3-23,76,72,67,64,62,32,93,79,64,30.08,30.03,29.98,10,10,6,20,11,23,0.01,8,Rain,356
2013-3-24,77,71,65,67,64,61,93,83,73,30.09,30.03,29.98,10,10,6,17,10,20,T,8,Rain,26
2013-3-25,78,73,67,68,66,32,97,84,71,30.06,30.02,29.97,10,10,4,15,8,17,T,7,Rain,6
2013-3-26,77,73,68,70,67,32,100,87,74,30.09,30.03,29.98,10,8,2,22,12,28,0.44,8,Rain,4
2013-3-27,75,71,66,67,65,64,93,83,73,30.10,30.05,30.00,10,8,2,29,23,35,1.20,8,Rain,30
2013-3-28,77,72,67,69,65,64,93,81,69,30.11,30.07,30.01,10,10,8,22,16,31,0.03,5,Rain,40
2013-3-29,76,73,69,67,64,62,84,77,69,30.10,30.06,30.03,10,10,2,23,16,26,0.05,7,Rain,56
2013-3-30,78,71,63,67,61,51,87,78,68,30.10,30.05,30.02,10,9,3,29,11,33,0.01,4,Rain,351
2013-3-31,77,68,59,55,52,48,72,57,41,30.10,30.05,29.99,10,10,10,23,10,28,0.00,6,,345